createdAt,value
2023-01-28T00:00:58.731Z,-0.06
2023-01-28T00:03:26.264Z,0.15
2023-01-28T00:05:55.118Z,-0.06
2023-01-28T00:08:22.584Z,0.70
2023-01-28T00:10:50.083Z,0.62
2023-01-28T00:13:17.567Z,0.34
2023-01-28T00:15:46.459Z,-0.02
2023-01-28T00:18:13.915Z,-0.06
2023-01-28T00:20:41.373Z,-0.06
2023-01-28T00:23:09.033Z,0.30
2023-01-28T00:25:36.478Z,-0.01
2023-01-28T00:28:03.955Z,0.15
2023-01-28T00:30:31.433Z,0.15
2023-01-28T00:33:00.216Z,0.04
2023-01-28T00:35:27.667Z,0.07
2023-01-28T00:37:55.115Z,0.13
2023-01-28T00:40:22.565Z,0.28
2023-01-28T00:42:50.073Z,0.57
2023-01-28T00:45:18.088Z,0.59
2023-01-28T00:47:45.793Z,0.65
2023-01-28T00:50:15.059Z,0.67
2023-01-28T00:52:42.541Z,0.69
2023-01-28T00:55:10.491Z,0.90
2023-01-28T00:57:37.996Z,0.67
2023-01-28T01:00:06.940Z,0.50
2023-01-28T01:02:34.921Z,0.56
2023-01-28T01:05:02.489Z,0.65
2023-01-28T01:07:41.421Z,0.86
2023-01-28T01:10:10.468Z,0.94
2023-01-28T01:12:38.479Z,1.14
2023-01-28T01:15:08.809Z,0.25
2023-01-28T01:17:37.564Z,0.42
2023-01-28T01:20:05.919Z,0.24
2023-01-28T01:22:36.100Z,-0.21
2023-01-28T01:25:04.707Z,-0.20
2023-01-28T01:27:32.538Z,-0.08
2023-01-28T01:30:00.362Z,-0.08
2023-01-28T01:32:31.255Z,0.01
2023-01-28T01:34:59.152Z,0.17
2023-01-28T01:37:26.662Z,0.20
2023-01-28T01:39:55.962Z,0.38
2023-01-28T01:42:23.497Z,0.38
2023-01-28T01:44:57.499Z,0.37
2023-01-28T01:47:29.011Z,0.13
2023-01-28T01:49:57.347Z,-0.11
2023-01-28T01:52:29.288Z,-0.25
2023-01-28T01:55:02.663Z,0.10
2023-01-28T01:57:34.441Z,-0.36
2023-01-28T02:00:06.769Z,-0.21
2023-01-28T02:02:37.935Z,-0.26
2023-01-28T02:05:06.560Z,-0.24
2023-01-28T02:07:34.454Z,-0.29
2023-01-28T02:10:04.197Z,-0.17
2023-01-28T02:12:36.056Z,-0.20
2023-01-28T02:15:07.089Z,-0.23
2023-01-28T02:17:35.315Z,-0.29
2023-01-28T02:20:05.336Z,-0.32
2023-01-28T02:22:59.010Z,-0.14
2023-01-28T02:25:48.368Z,-0.42
2023-01-28T02:28:28.472Z,-0.54
2023-01-28T02:31:02.932Z,-0.50
2023-01-28T02:33:36.580Z,-0.37
2023-01-28T02:36:14.699Z,-0.28
2023-01-28T02:38:46.829Z,-0.10
2023-01-28T02:41:22.433Z,0.01
2023-01-28T02:43:51.675Z,0.60
2023-01-28T02:46:40.847Z,0.57
2023-01-28T02:49:12.624Z,0.91
2023-01-28T02:51:59.344Z,1.02
2023-01-28T02:54:36.964Z,0.83
2023-01-28T02:57:17.579Z,0.76
2023-01-28T02:59:52.643Z,0.70
2023-01-28T03:02:28.614Z,0.42
2023-01-28T03:05:04.130Z,0.63
2023-01-28T03:07:34.528Z,0.88
2023-01-28T03:10:06.104Z,0.81
2023-01-28T03:12:54.297Z,1.08
2023-01-28T03:15:44.123Z,1.06
2023-01-28T03:18:34.342Z,1.14
2023-01-28T03:21:25.854Z,0.85
2023-01-28T03:24:18.161Z,1.00
2023-01-28T03:27:21.273Z,1.06
2023-01-28T03:30:09.259Z,0.40
2023-01-28T03:32:57.249Z,1.07
2023-01-28T03:35:46.740Z,1.32
2023-01-28T03:38:21.028Z,1.46
2023-01-28T03:40:53.008Z,1.22
2023-01-28T03:43:20.608Z,1.31
2023-01-28T03:45:51.253Z,0.89
2023-01-28T03:48:20.369Z,0.95
2023-01-28T03:50:48.106Z,1.01
2023-01-28T03:53:16.999Z,1.20
2023-01-28T03:55:45.219Z,1.31
2023-01-28T03:58:14.446Z,1.14
2023-01-28T04:00:43.395Z,0.99
2023-01-28T04:03:16.386Z,0.97
2023-01-28T04:05:46.104Z,1.01
2023-01-28T04:08:14.527Z,0.84
2023-01-28T04:10:43.812Z,0.93
2023-01-28T04:13:13.181Z,0.98
2023-01-28T04:15:41.030Z,0.86
2023-01-28T04:18:08.469Z,1.16
2023-01-28T04:20:36.058Z,1.34
2023-01-28T04:23:04.897Z,1.67
2023-01-28T04:25:32.649Z,1.23
2023-01-28T04:28:00.164Z,0.78
2023-01-28T04:30:28.161Z,0.98
2023-01-28T04:32:55.720Z,1.00
2023-01-28T04:35:23.192Z,0.82
2023-01-28T04:37:50.650Z,0.62
2023-01-28T04:40:19.793Z,0.50
2023-01-28T04:42:54.087Z,1.18
2023-01-28T04:45:21.682Z,0.67
2023-01-28T04:47:49.425Z,0.30
2023-01-28T04:50:17.951Z,0.22
2023-01-28T04:52:45.421Z,0.30
2023-01-28T04:55:13.228Z,0.41
2023-01-28T04:57:42.167Z,0.54
2023-01-28T05:00:10.646Z,0.02
2023-01-28T05:02:38.099Z,0.17
2023-01-28T05:05:08.871Z,0.25
2023-01-28T05:07:36.989Z,0.42
2023-01-28T05:10:05.220Z,0.34
2023-01-28T05:12:34.088Z,0.52
2023-01-28T05:15:03.368Z,0.49
2023-01-28T05:17:30.885Z,0.49
2023-01-28T05:19:58.396Z,0.30
2023-01-28T05:22:25.872Z,0.48
2023-01-28T05:24:53.340Z,0.59
2023-01-28T05:27:21.038Z,0.40
2023-01-28T05:29:48.527Z,0.38
2023-01-28T05:32:17.437Z,0.34
2023-01-28T05:34:44.986Z,0.45
2023-01-28T05:37:12.506Z,0.35
2023-01-28T05:39:40.090Z,0.65
2023-01-28T05:42:07.617Z,1.26
2023-01-28T05:44:35.064Z,1.44
2023-01-28T05:47:02.541Z,1.02
2023-01-28T05:49:31.368Z,1.31
2023-01-28T05:51:58.877Z,1.11
2023-01-28T05:54:26.323Z,0.61
2023-01-28T05:56:53.856Z,1.01
2023-01-28T05:59:21.320Z,1.02
2023-01-28T06:01:49.491Z,1.07
2023-01-28T06:04:18.781Z,1.40
2023-01-28T06:06:47.693Z,1.26
2023-01-28T06:09:15.357Z,1.98
2023-01-28T06:11:42.832Z,1.96
2023-01-28T06:14:10.297Z,1.97
2023-01-28T06:16:37.943Z,2.09
2023-01-28T06:19:05.412Z,1.65
2023-01-28T06:21:32.878Z,1.50
2023-01-28T06:24:01.690Z,1.46
2023-01-28T06:26:29.166Z,1.03
2023-01-28T06:28:56.620Z,0.82
2023-01-28T06:31:24.076Z,0.82
2023-01-28T06:33:51.535Z,0.55
2023-01-28T06:36:18.993Z,0.58
2023-01-28T06:38:46.431Z,0.64
2023-01-28T06:41:15.248Z,0.80
2023-01-28T06:43:42.706Z,1.04
2023-01-28T06:46:10.288Z,0.86
2023-01-28T06:48:37.762Z,0.63
2023-01-28T06:51:05.796Z,0.54
2023-01-28T06:53:33.270Z,0.76
2023-01-28T06:56:00.703Z,0.56
2023-01-28T06:58:29.524Z,1.22
2023-01-28T07:00:56.975Z,0.86
2023-01-28T07:03:24.432Z,0.73
2023-01-28T07:05:51.900Z,0.90
2023-01-28T07:08:19.380Z,1.17
2023-01-28T07:10:46.932Z,1.01
2023-01-28T07:13:14.383Z,0.80
2023-01-28T07:15:43.155Z,1.07
2023-01-28T07:18:10.617Z,1.04
2023-01-28T07:20:38.071Z,0.84
2023-01-28T07:23:05.611Z,0.37
2023-01-28T07:25:33.059Z,0.54
2023-01-28T07:28:00.585Z,0.49
2023-01-28T07:30:28.139Z,0.48
2023-01-28T07:32:58.997Z,0.70
2023-01-28T07:35:27.726Z,0.30
2023-01-28T07:37:56.047Z,0.24
2023-01-28T07:40:24.327Z,0.49
2023-01-28T07:42:52.565Z,0.71
2023-01-28T07:45:20.047Z,0.66
2023-01-28T07:47:54.665Z,0.71
2023-01-28T07:50:23.673Z,0.50
2023-01-28T07:52:51.186Z,0.54
2023-01-28T07:55:19.102Z,0.93
2023-01-28T07:57:51.484Z,0.85
2023-01-28T08:00:20.193Z,0.52
2023-01-28T08:02:48.835Z,0.50
2023-01-28T08:05:18.100Z,0.21
2023-01-28T08:07:48.463Z,0.33
2023-01-28T08:10:17.183Z,0.14
2023-01-28T08:12:52.348Z,0.30
2023-01-28T08:15:19.972Z,0.27
2023-01-28T08:17:47.437Z,0.35
2023-01-28T08:20:15.859Z,0.63
2023-01-28T08:22:43.597Z,0.57
2023-01-28T08:25:12.429Z,0.64
2023-01-28T08:27:39.935Z,0.74
2023-01-28T08:30:09.161Z,0.99
2023-01-28T08:32:37.165Z,1.71
2023-01-28T08:35:04.974Z,1.62
2023-01-28T08:37:32.438Z,1.34
2023-01-28T08:39:59.895Z,1.14
2023-01-28T08:42:28.689Z,1.12
2023-01-28T08:44:56.206Z,1.51
2023-01-28T08:47:23.638Z,2.19
2023-01-28T08:49:51.081Z,3.22
2023-01-28T08:52:18.551Z,1.71
2023-01-28T08:54:45.989Z,1.87
2023-01-28T08:57:13.451Z,1.77
2023-01-28T08:59:45.037Z,2.03
2023-01-28T09:02:30.394Z,1.78
2023-01-28T09:04:59.151Z,1.44
2023-01-28T09:07:26.623Z,1.78
2023-01-28T09:09:54.092Z,1.71
2023-01-28T09:12:21.579Z,2.23
2023-01-28T09:14:50.408Z,2.64
2023-01-28T09:17:17.912Z,2.83
2023-01-28T09:19:45.422Z,2.42
2023-01-28T09:22:13.057Z,2.03
2023-01-28T09:24:40.493Z,2.14
2023-01-28T09:27:08.056Z,1.78
2023-01-28T09:29:35.925Z,2.45
2023-01-28T09:32:05.127Z,2.01
2023-01-28T09:34:32.754Z,2.49
2023-01-28T09:37:00.229Z,2.60
2023-01-28T09:39:28.453Z,2.50
2023-01-28T09:42:09.713Z,2.83
2023-01-28T09:44:54.058Z,3.22
2023-01-28T09:47:27.649Z,3.63
2023-01-28T09:49:59.153Z,3.05
2023-01-28T09:52:27.778Z,2.43
2023-01-28T09:55:00.796Z,2.59
2023-01-28T09:57:37.644Z,2.14
2023-01-28T10:00:15.701Z,1.85
2023-01-28T10:02:59.829Z,2.00
2023-01-28T10:05:35.528Z,1.60
2023-01-28T10:08:15.190Z,1.44
2023-01-28T10:10:47.936Z,1.43
2023-01-28T10:13:25.113Z,1.21
2023-01-28T10:16:06.789Z,1.54
2023-01-28T10:18:43.047Z,1.53
2023-01-28T10:21:16.435Z,1.75
2023-01-28T10:23:53.918Z,2.09
2023-01-28T10:26:26.733Z,2.28
2023-01-28T10:28:57.959Z,2.81
2023-01-28T10:31:33.014Z,2.81
2023-01-28T10:34:04.355Z,2.43
2023-01-28T10:36:31.854Z,2.51
2023-01-28T10:38:59.698Z,1.78
2023-01-28T10:41:27.222Z,1.84
2023-01-28T10:43:54.715Z,2.39
2023-01-28T10:46:27.945Z,1.65
2023-01-28T10:49:00.798Z,1.57
2023-01-28T10:51:37.159Z,2.03
2023-01-28T10:54:05.962Z,1.86
2023-01-28T10:56:35.728Z,1.80
2023-01-28T10:59:05.266Z,2.14
2023-01-28T11:01:45.229Z,2.53
2023-01-28T11:04:19.717Z,2.87
2023-01-28T11:06:57.329Z,2.51
2023-01-28T11:09:26.662Z,2.18
2023-01-28T11:11:54.248Z,2.17
2023-01-28T11:14:24.067Z,2.29
2023-01-28T11:16:53.949Z,2.08
2023-01-28T11:19:26.838Z,1.88
2023-01-28T11:21:59.461Z,2.37
2023-01-28T11:24:31.300Z,2.30
2023-01-28T11:27:01.779Z,2.31
2023-01-28T11:29:32.823Z,2.09
2023-01-28T11:32:01.163Z,1.77
2023-01-28T11:34:30.505Z,2.20
2023-01-28T11:37:05.729Z,2.48
2023-01-28T11:39:33.323Z,2.85
2023-01-28T11:42:16.948Z,2.88
2023-01-28T11:44:44.956Z,3.10
2023-01-28T11:47:25.646Z,3.16
2023-01-28T11:50:06.826Z,3.10
2023-01-28T11:53:06.045Z,2.82
2023-01-28T11:55:59.515Z,1.76
2023-01-28T11:58:38.673Z,2.34
2023-01-28T12:01:13.415Z,2.46
2023-01-28T12:03:56.088Z,3.14
2023-01-28T12:06:35.814Z,2.16
2023-01-28T12:09:15.144Z,1.66
2023-01-28T12:12:14.857Z,1.61
2023-01-28T12:15:08.278Z,1.93
2023-01-28T12:17:51.634Z,1.88
2023-01-28T12:20:26.945Z,2.17
2023-01-28T12:23:12.094Z,1.94
2023-01-28T12:25:59.521Z,2.21
2023-01-28T12:28:40.105Z,2.34
2023-01-28T12:31:23.965Z,2.16
2023-01-28T12:34:19.386Z,2.32
2023-01-28T12:36:57.058Z,1.99
2023-01-28T12:39:35.068Z,1.97
2023-01-28T12:42:11.318Z,1.74
2023-01-28T12:44:44.361Z,2.04
2023-01-28T12:47:16.920Z,2.37
2023-01-28T12:49:48.828Z,1.97
2023-01-28T12:52:23.951Z,1.62
2023-01-28T12:54:59.339Z,1.87
2023-01-28T12:57:30.515Z,1.79
2023-01-28T13:00:16.930Z,1.68
2023-01-28T13:02:51.236Z,1.77
2023-01-28T13:05:23.876Z,1.52
2023-01-28T13:07:57.651Z,1.68
2023-01-28T13:10:29.750Z,1.62
2023-01-28T13:13:00.019Z,1.71
2023-01-28T13:15:27.514Z,1.50
2023-01-28T13:17:56.974Z,1.65
2023-01-28T13:20:37.517Z,1.21
2023-01-28T13:23:07.572Z,1.28
2023-01-28T13:25:35.794Z,1.21
2023-01-28T13:28:06.670Z,1.31
2023-01-28T13:30:37.142Z,1.16
2023-01-28T13:33:06.532Z,1.23
2023-01-28T13:35:36.731Z,1.16
2023-01-28T13:38:10.141Z,1.04
2023-01-28T13:40:40.489Z,0.93
2023-01-28T13:43:28.814Z,0.84
2023-01-28T13:45:59.484Z,0.82
2023-01-28T13:48:32.765Z,1.01
2023-01-28T13:51:01.262Z,1.01
2023-01-28T13:53:41.057Z,1.01
2023-01-28T13:56:18.899Z,1.40
2023-01-28T13:59:11.402Z,1.21
2023-01-28T14:02:17.696Z,1.06
2023-01-28T14:05:09.514Z,1.42
2023-01-28T14:08:10.623Z,1.55
2023-01-28T14:10:51.075Z,1.69
2023-01-28T14:13:32.160Z,1.86
2023-01-28T14:16:20.485Z,1.41
2023-01-28T14:18:49.880Z,1.18
2023-01-28T14:21:20.937Z,1.41
2023-01-28T14:23:50.786Z,1.62
2023-01-28T14:26:32.739Z,1.89
2023-01-28T14:29:13.981Z,1.92
2023-01-28T14:31:43.096Z,1.63
2023-01-28T14:34:20.041Z,1.67
2023-01-28T14:36:49.793Z,2.05
2023-01-28T14:39:19.123Z,1.98
2023-01-28T14:41:49.529Z,1.90
2023-01-28T14:44:28.523Z,1.54
2023-01-28T14:47:11.409Z,1.59
2023-01-28T14:49:49.837Z,1.34
2023-01-28T14:52:44.156Z,1.81
2023-01-28T14:55:27.369Z,1.48
2023-01-28T14:57:57.716Z,1.67
2023-01-28T15:00:27.735Z,1.83
2023-01-28T15:02:56.641Z,1.97
2023-01-28T15:05:25.766Z,1.73
2023-01-28T15:07:53.948Z,2.00
2023-01-28T15:10:25.451Z,1.92
2023-01-28T15:12:56.247Z,1.80
2023-01-28T15:15:32.276Z,1.67
2023-01-28T15:18:04.207Z,2.23
2023-01-28T15:20:32.484Z,2.06
2023-01-28T15:23:02.669Z,2.09
2023-01-28T15:25:31.103Z,2.32
2023-01-28T15:28:02.324Z,1.70
2023-01-28T15:30:32.073Z,1.86
2023-01-28T15:33:03.482Z,1.96
2023-01-28T15:35:31.302Z,2.08
2023-01-28T15:37:58.906Z,1.53
2023-01-28T15:40:26.914Z,2.31
2023-01-28T15:42:58.243Z,2.17
2023-01-28T15:45:29.186Z,2.23
2023-01-28T15:48:08.791Z,2.07
2023-01-28T15:50:36.453Z,1.78
2023-01-28T15:53:10.999Z,1.99
2023-01-28T15:55:40.813Z,1.96
2023-01-28T15:58:18.898Z,2.11
2023-01-28T16:00:47.254Z,2.08
2023-01-28T16:03:21.555Z,2.28
2023-01-28T16:05:59.495Z,2.09
2023-01-28T16:08:33.278Z,2.90
2023-01-28T16:11:00.887Z,2.12
2023-01-28T16:13:29.908Z,2.01
2023-01-28T16:15:58.711Z,1.86
2023-01-28T16:18:39.678Z,1.48
2023-01-28T16:21:10.441Z,1.08
2023-01-28T16:23:39.678Z,1.18
2023-01-28T16:26:22.184Z,1.07
2023-01-28T16:28:49.857Z,0.84
2023-01-28T16:31:17.512Z,0.79
2023-01-28T16:33:46.659Z,0.91
2023-01-28T16:36:15.966Z,0.90
2023-01-28T16:38:43.499Z,0.82
2023-01-28T16:41:16.732Z,0.70
2023-01-28T16:43:44.228Z,1.04
2023-01-28T16:46:13.371Z,1.14
2023-01-28T16:48:40.849Z,1.00
2023-01-28T16:51:17.020Z,1.09
2023-01-28T16:53:45.865Z,1.30
2023-01-28T16:56:35.803Z,1.09
2023-01-28T16:59:03.386Z,0.95
2023-01-28T17:01:30.840Z,0.73
2023-01-28T17:03:58.476Z,0.64
2023-01-28T17:06:27.437Z,0.59
2023-01-28T17:08:54.887Z,0.69
2023-01-28T17:11:22.349Z,0.74
2023-01-28T17:13:49.802Z,1.04
2023-01-28T17:16:17.747Z,1.37
2023-01-28T17:18:46.905Z,1.07
2023-01-28T17:21:16.031Z,1.05
2023-01-28T17:23:45.350Z,1.19
2023-01-28T17:26:15.037Z,1.08
2023-01-28T17:28:42.956Z,1.17
2023-01-28T17:31:12.895Z,1.24
2023-01-28T17:33:40.840Z,1.62
2023-01-28T17:36:09.270Z,1.86
2023-01-28T17:38:36.766Z,1.49
2023-01-28T17:41:07.474Z,1.29
2023-01-28T17:43:35.279Z,1.08
2023-01-28T17:46:11.428Z,1.08
2023-01-28T17:48:38.955Z,0.98
2023-01-28T17:51:06.851Z,0.72
2023-01-28T17:53:34.315Z,0.46
2023-01-28T17:56:01.908Z,0.49
2023-01-28T17:58:30.856Z,0.59
2023-01-28T18:00:58.397Z,0.72
2023-01-28T18:03:25.882Z,0.43
2023-01-28T18:06:00.328Z,0.53
2023-01-28T18:08:28.086Z,0.88
2023-01-28T18:10:56.065Z,0.99
2023-01-28T18:13:23.655Z,0.80
2023-01-28T18:15:52.461Z,0.64
2023-01-28T18:18:19.903Z,0.52
2023-01-28T18:20:47.352Z,0.60
2023-01-28T18:23:14.806Z,0.59
2023-01-28T18:25:42.267Z,0.42
2023-01-28T18:28:09.707Z,0.64
2023-01-28T18:30:37.214Z,0.65
2023-01-28T18:33:06.085Z,1.03
2023-01-28T18:35:33.596Z,1.39
2023-01-28T18:38:02.510Z,1.41
2023-01-28T18:40:30.071Z,1.49
2023-01-28T18:42:57.549Z,1.52
2023-01-28T18:45:25.021Z,2.37
2023-01-28T18:47:52.484Z,1.68
2023-01-28T18:50:21.348Z,2.37
2023-01-28T18:52:48.798Z,2.83
2023-01-28T18:55:16.581Z,2.89
2023-01-28T18:57:44.172Z,2.25
2023-01-28T19:00:12.700Z,1.92
2023-01-28T19:02:40.157Z,1.40
2023-01-28T19:05:08.006Z,1.69
2023-01-28T19:07:36.803Z,2.21
2023-01-28T19:10:04.753Z,2.12
2023-01-28T19:12:32.218Z,1.99
2023-01-28T19:14:59.675Z,1.76
2023-01-28T19:17:27.131Z,1.52
2023-01-28T19:19:54.583Z,1.80
2023-01-28T19:22:22.019Z,2.27
2023-01-28T19:24:50.831Z,2.75
2023-01-28T19:27:18.292Z,2.40
2023-01-28T19:29:45.727Z,2.81
2023-01-28T19:32:13.166Z,2.53
2023-01-28T19:34:40.648Z,2.37
2023-01-28T19:37:08.384Z,1.26
2023-01-28T19:39:36.235Z,1.90
2023-01-28T19:42:05.029Z,2.18
2023-01-28T19:44:34.056Z,1.78
2023-01-28T19:47:02.219Z,1.21
2023-01-28T19:49:29.792Z,1.05
2023-01-28T19:51:57.278Z,1.06
2023-01-28T19:54:24.782Z,0.48
2023-01-28T19:56:52.422Z,0.43
2023-01-28T19:59:21.247Z,0.63
2023-01-28T20:01:48.844Z,0.25
2023-01-28T20:04:16.373Z,0.46
2023-01-28T20:06:43.922Z,0.20
2023-01-28T20:09:16.005Z,0.19
2023-01-28T20:11:43.669Z,0.26
2023-01-28T20:14:29.124Z,0.52
2023-01-28T20:16:56.660Z,0.42
2023-01-28T20:19:24.169Z,0.47
2023-01-28T20:21:52.692Z,0.31
2023-01-28T20:24:20.243Z,0.19
2023-01-28T20:26:47.824Z,0.26
2023-01-28T20:29:18.415Z,0.22
2023-01-28T20:32:00.878Z,0.00
2023-01-28T20:34:35.157Z,0.10
2023-01-28T20:37:03.217Z,-0.17
2023-01-28T20:39:30.758Z,0.06
2023-01-28T20:41:58.340Z,0.72
2023-01-28T20:44:26.641Z,0.97
2023-01-28T20:46:55.444Z,1.01
2023-01-28T20:49:22.927Z,0.63
2023-01-28T20:51:50.419Z,0.49
2023-01-28T20:54:18.667Z,0.67
2023-01-28T20:56:46.191Z,0.46
2023-01-28T20:59:13.852Z,0.35
2023-01-28T21:01:41.602Z,-0.03
2023-01-28T21:04:10.922Z,-0.04
2023-01-28T21:06:39.796Z,-0.01
2023-01-28T21:09:07.932Z,0.37
2023-01-28T21:11:35.565Z,0.13
2023-01-28T21:14:03.095Z,-0.14
2023-01-28T21:16:30.574Z,-0.17
2023-01-28T21:18:58.071Z,-0.10
2023-01-28T21:21:29.163Z,-0.42
2023-01-28T21:23:59.735Z,-0.40
2023-01-28T21:26:27.733Z,-0.16
2023-01-28T21:28:56.014Z,-0.31
2023-01-28T21:31:26.128Z,0.02
2023-01-28T21:33:55.775Z,-0.15
2023-01-28T21:36:24.578Z,0.21
2023-01-28T21:38:55.031Z,0.06
2023-01-28T21:41:22.678Z,-0.05
2023-01-28T21:43:52.047Z,0.12
2023-01-28T21:46:19.659Z,-0.32
2023-01-28T21:48:47.865Z,-0.17
2023-01-28T21:51:33.008Z,0.29
2023-01-28T21:54:02.597Z,0.52
2023-01-28T21:56:30.063Z,0.57
2023-01-28T21:59:15.136Z,0.74
2023-01-28T22:01:44.049Z,0.25
2023-01-28T22:04:11.589Z,-0.12
2023-01-28T22:06:39.084Z,0.06
2023-01-28T22:09:11.606Z,-0.03
2023-01-28T22:11:39.809Z,0.43
2023-01-28T22:14:07.857Z,0.96
2023-01-28T22:16:35.725Z,0.22
2023-01-28T22:19:03.234Z,0.12
2023-01-28T22:21:31.111Z,-0.16
2023-01-28T22:23:58.907Z,-0.12
2023-01-28T22:26:27.804Z,0.04
2023-01-28T22:28:55.324Z,0.33
2023-01-28T22:31:23.018Z,-0.09
2023-01-28T22:33:50.545Z,-0.21
2023-01-28T22:36:18.026Z,-0.13
2023-01-28T22:38:46.571Z,-0.29
2023-01-28T22:41:18.931Z,-0.27
2023-01-28T22:43:47.999Z,-0.46
2023-01-28T22:46:15.893Z,-0.35
2023-01-28T22:48:44.205Z,-0.12
2023-01-28T22:51:16.434Z,0.15
2023-01-28T22:53:44.612Z,0.17
2023-01-28T22:56:12.343Z,-0.33
2023-01-28T22:58:39.928Z,-0.69
2023-01-28T23:01:09.009Z,-0.60
2023-01-28T23:03:37.045Z,0.06
2023-01-28T23:06:05.990Z,0.26
2023-01-28T23:08:34.282Z,0.05
2023-01-28T23:11:02.868Z,-0.01
2023-01-28T23:13:52.806Z,-0.37
2023-01-28T23:16:39.402Z,-0.31
2023-01-28T23:19:24.717Z,-0.62
2023-01-28T23:22:11.975Z,-0.97
2023-01-28T23:24:39.480Z,-0.81
2023-01-28T23:27:06.953Z,-0.92
2023-01-28T23:29:34.426Z,-0.91
2023-01-28T23:32:06.307Z,-0.73
2023-01-28T23:34:35.792Z,-0.54
2023-01-28T23:37:04.170Z,-0.74
2023-01-28T23:39:31.653Z,-0.75
2023-01-28T23:41:59.159Z,-0.75
2023-01-28T23:44:27.631Z,-0.44
2023-01-28T23:46:56.388Z,-0.33
2023-01-28T23:49:25.275Z,-0.23
2023-01-28T23:51:52.741Z,-0.41
2023-01-28T23:54:20.278Z,-0.41
2023-01-28T23:56:47.855Z,-0.63
2023-01-28T23:59:15.333Z,-0.40
